Latest Weather Observations for Redcliffe

IDQ60801

Issued at 3:22 pm EST Tuesday 29 September 2020 (issued every 10 minutes, with the page automatically refreshed every 10 minutes)

About weather observations | Map of weather stations | Latest weather observations for QLD | Other Formats
Station Details ID: 040958 Name: REDCLIFFE Lat: -27.22 Lon: 153.09 Height: 12.6 m
Data from the previous 72 hours. | See also: Recent months at Redcliffe
Date/Time
EST
Temp
°C
App
Temp
°C
Dew
Point
°C
Rel
Hum
%
Delta-T
°C
Wind Press
QNH
hPa
Press
MSL
hPa
Rain since
9am
mm
Dir  Spd
km/h
Gust
km/h
Spd
kts
Gust
kts
29/03:00pm 21.1 15.2 9.0 46 6.4 ESE 30 35 16 19 1021.6 1021.6 0.0
29/02:30pm 21.4 15.7 9.9 48 6.2 E 30 33 16 18 1021.8 1021.8 0.0
29/02:00pm 21.6 15.9 9.8 47 6.3 ESE 30 35 16 19 1022.3 1022.3 0.0
29/01:30pm 21.7 16.4 9.9 47 6.4 ESE 28 33 15 18 1022.7 1022.7 0.0
29/01:00pm 22.0 17.0 9.5 45 6.7 ESE 26 30 14 16 1023.1 1023.1 0.0
29/12:30pm 21.7 16.5 8.9 44 6.8 SE 26 33 14 18 1023.4 1023.4 0.0
29/12:00pm 21.9 16.1 9.4 45 6.7 SE 30 35 16 19 1023.8 1023.8 0.0
29/11:30am 22.2 16.9 9.7 45 6.8 SE 28 33 15 18 1024.4 1024.4 0.0
29/11:00am 21.4 16.7 9.3 46 6.4 SE 24 30 13 16 1025.1 1025.1 0.0
29/10:30am 21.4 15.9 10.6 50 5.9 SE 30 35 16 19 1025.4 1025.4 0.0
29/10:00am 21.1 15.9 11.7 55 5.2 SSE 30 35 16 19 1025.5 1025.5 0.0
29/09:30am 21.2 15.8 11.0 52 5.6 SSE 30 33 16 18 1025.6 1025.6 0.0
29/09:00am 21.0 15.7 11.1 53 5.4 SSE 30 33 16 18 1025.5 1025.5 0.0
29/08:30am 20.8 16.0 11.7 56 5.1 S 28 33 15 18 1025.5 1025.5 0.0
29/08:00am 20.2 16.6 11.7 58 4.7 S 22 28 12 15 1025.4 1025.4 0.0
29/07:30am 19.0 14.1 11.3 61 4.2 S 28 35 15 19 1024.8 1024.8 0.0
29/07:00am 18.1 13.6 11.4 65 3.6 S 26 30 14 16 1024.4 1024.4 0.0
29/06:30am 16.8 12.2 11.1 69 3.1 S 26 32 14 17 1024.1 1024.1 0.0
29/06:00am 15.6 11.4 11.0 74 2.4 S 24 30 13 16 1023.5 1023.5 0.0
29/05:30am 15.4 10.4 11.0 75 2.3 S 28 32 15 17 1023.1 1023.1 0.0
29/05:00am 15.4 10.8 11.2 76 2.2 S 26 32 14 17 1022.7 1022.7 0.0
29/04:30am 15.5 11.9 10.7 73 2.5 S 20 26 11 14 1022.6 1022.6 0.0
29/04:00am 15.9 11.3 10.9 72 2.7 S 26 32 14 17 1022.7 1022.7 0.0
29/03:30am 15.9 11.3 10.9 72 2.7 S 26 32 14 17 1022.8 1022.8 0.0
29/03:00am 16.0 11.9 11.4 74 2.5 S 24 32 13 17 1022.8 1022.8 0.0
29/02:30am 15.8 11.2 11.2 74 2.5 S 26 32 14 17 1022.9 1022.9 0.0
29/02:00am 15.9 10.6 11.3 74 2.5 S 30 33 16 18 1023.1 1023.1 0.0
29/01:30am 16.1 11.3 11.5 74 2.5 S 28 33 15 18 1023.5 1023.5 0.0
29/01:00am 16.1 11.9 11.1 72 2.7 S 24 32 13 17 1023.8 1023.8 0.0
29/12:30am 16.4 13.6 11.3 72 2.7 SSW 17 24 9 13 1024.1 1024.1 0.0
29/12:00am 16.5 13.7 11.4 72 2.7 SSW 17 24 9 13 1024.4 1024.4 0.0
 
Date/Time
EST
Temp
°C
App
Temp
°C
Dew
Point
°C
Rel
Hum
%
Delta-T
°C
Wind Press
QNH
hPa
Press
MSL
hPa
Rain since
9am
mm
Dir  Spd
km/h
Gust
km/h
Spd
kts
Gust
kts
28/11:30pm 16.5 14.5 11.6 73 2.7 SSW 13 19 7 10 1024.5 1024.5 0.0
28/11:00pm 17.7 13.7 11.7 68 3.3 SE 24 30 13 16 1024.5 1024.5 0.0
28/10:30pm 18.4 13.4 11.0 62 4.0 SE 28 33 15 18 1024.4 1024.4 0.0
28/10:00pm 18.5 13.2 11.1 62 4.0 SE 30 33 16 18 1024.5 1024.5 0.0
28/09:30pm 18.5 13.2 11.3 63 3.9 SE 30 33 16 18 1024.7 1024.7 0.0
28/09:00pm 18.4 13.9 11.5 64 3.8 SE 26 33 14 18 1024.8 1024.8 0.0
28/08:30pm 18.4 13.5 11.2 63 3.9 SE 28 33 15 18 1024.8 1024.8 0.0
28/08:00pm 18.5 12.9 11.6 64 3.8 SE 32 39 17 21 1024.6 1024.6 0.0
28/07:30pm 18.4 12.8 12.2 67 3.4 SE 33 39 18 21 1024.3 1024.3 0.0
28/07:00pm 18.5 13.0 12.5 68 3.3 SE 33 39 18 21 1023.9 1023.9 0.0
28/06:30pm 18.7 12.8 12.5 67 3.5 SE 35 41 19 22 1023.7 1023.7 0.0
28/06:00pm 18.9 13.3 12.2 65 3.7 SE 33 41 18 22 1023.3 1023.3 0.0
28/05:30pm 19.2 13.7 12.0 63 4.0 SE 32 37 17 20 1022.9 1022.9 0.0
28/05:00pm 19.5 14.0 11.8 61 4.2 SE 32 37 17 20 1022.7 1022.7 0.0
28/04:30pm 19.6 14.1 11.9 61 4.3 SE 32 35 17 19 1022.3 1022.3 0.0
28/04:00pm 20.1 14.7 12.1 60 4.4 SE 32 37 17 20 1021.9 1021.9 0.0
28/03:30pm 20.7 15.4 12.4 59 4.7 ESE 32 37 17 20 1021.8 1021.8 0.0
28/03:00pm 20.4 15.4 11.1 55 5.1 ESE 28 33 15 18 1022.0 1022.0 0.0
28/02:30pm 20.2 15.6 11.1 56 5.0 SE 26 32 14 17 1022.0 1022.0 0.0
28/02:00pm 20.6 15.8 11.8 57 4.9 ESE 28 32 15 17 1022.2 1022.2 0.0
28/01:30pm 20.8 17.0 12.5 59 4.7 SE 24 32 13 17 1022.6 1022.6 0.0
28/01:00pm 20.8 16.4 12.8 60 4.5 SE 28 32 15 17 1022.9 1022.9 0.0
28/12:30pm 19.9 14.9 12.2 61 4.3 SE 30 35 16 19 1023.2 1023.2 0.0
28/12:00pm 20.6 15.5 11.8 57 4.9 SE 30 33 16 18 1023.8 1023.8 0.0
28/11:30am 20.4 15.1 12.6 61 4.4 SSE 32 35 17 19 1024.4 1024.4 0.0
28/11:00am 20.4 15.7 11.9 58 4.7 SSE 28 33 15 18 1024.7 1024.7 0.0
28/10:30am 21.3 17.4 13.2 60 4.6 SSE 26 32 14 17 1024.9 1024.9 0.0
28/10:00am 20.3 14.8 11.8 58 4.7 SSE 32 35 17 19 1025.2 1025.2 0.0
28/09:30am 20.7 15.5 12.9 61 4.4 SSE 32 35 17 19 1025.4 1025.4 0.0
28/09:00am 19.3 13.4 10.3 56 4.8 SSE 32 37 17 20 1025.3 1025.3 0.0
28/08:30am 18.7 12.9 9.5 55 4.9 S 30 35 16 19 1025.1 1025.1 0.0
28/08:00am 18.0 12.0 8.8 55 4.7 S 30 33 16 18 1025.0 1025.0 0.0
28/07:30am 17.7 11.8 9.1 57 4.5 S 30 35 16 19 1024.7 1024.7 0.0
28/07:00am 16.4 12.3 8.6 60 4.0 S 20 28 11 15 1024.5 1024.5 0.0
28/06:30am 15.1 11.4 8.1 63 3.5 SSW 17 26 9 14 1024.2 1024.2 0.0
28/06:00am 14.1 10.4 8.1 67 3.0 SSW 17 22 9 12 1023.8 1023.8 0.0
28/05:30am 13.6 10.3 8.2 70 2.7 SSW 15 20 8 11 1023.4 1023.4 0.0
28/05:00am 13.9 10.7 8.3 69 2.8 SSW 15 19 8 10 1023.0 1023.0 0.0
28/04:30am 14.1 10.5 8.5 69 2.8 SSW 17 26 9 14 1022.8 1022.8 0.0
28/04:00am 14.4 10.5 8.8 69 2.8 S 19 26 10 14 1022.6 1022.6 0.0
28/03:30am 14.7 10.7 8.9 68 2.9 S 20 28 11 15 1022.6 1022.6 0.0
28/03:00am 15.0 11.0 8.9 67 3.1 S 20 26 11 14 1022.7 1022.7 0.0
28/02:30am 15.1 10.8 9.2 68 3.0 S 22 28 12 15 1022.6 1022.6 0.0
28/02:00am 15.7 10.4 9.8 68 3.1 S 28 33 15 18 1022.9 1022.9 0.0
28/01:30am 16.0 9.9 9.7 66 3.3 SSE 32 37 17 20 1023.1 1023.1 0.0
28/01:00am 16.4 10.4 10.0 66 3.3 SSE 32 37 17 20 1023.3 1023.3 0.0
28/12:30am 16.6 10.5 10.5 67 3.2 SSE 33 37 18 20 1023.4 1023.4 0.0
28/12:00am 16.3 10.2 9.9 66 3.3 S 32 35 17 19 1023.6 1023.6 0.0
 
Date/Time
EST
Temp
°C
App
Temp
°C
Dew
Point
°C
Rel
Hum
%
Delta-T
°C
Wind Press
QNH
hPa
Press
MSL
hPa
Rain since
9am
mm
Dir  Spd
km/h
Gust
km/h
Spd
kts
Gust
kts
27/11:30pm 16.0 11.2 8.7 62 3.7 S 24 32 13 17 1023.8 1023.8 0.0
27/11:00pm 15.9 12.4 8.6 62 3.7 SSW 17 22 9 12 1023.7 1023.7 0.0
27/10:30pm 17.3 13.1 7.6 53 4.9 SSE 19 24 10 13 1023.6 1023.6 0.0
27/10:00pm 18.4 13.8 6.6 46 5.8 SE 20 26 11 14 1023.4 1023.4 0.0
27/09:30pm 18.3 13.4 6.8 47 5.7 SE 22 26 12 14 1023.2 1023.2 0.0
27/09:00pm 18.3 13.2 5.8 44 6.1 SE 22 26 12 14 1022.9 1022.9 0.0
27/08:30pm 18.1 13.1 6.6 47 5.7 SE 22 26 12 14 1022.7 1022.7 0.0
27/08:00pm 18.6 13.8 7.4 48 5.6 SE 22 28 12 15 1022.4 1022.4 0.0
27/07:30pm 18.6 13.5 7.7 49 5.6 SE 24 30 13 16 1021.8 1021.8 0.0
27/07:00pm 18.8 13.9 8.5 51 5.3 ESE 24 30 13 16 1021.3 1021.3 0.0
27/06:30pm 18.9 13.6 8.3 50 5.5 ESE 26 30 14 16 1020.8 1020.8 0.0
27/06:00pm 18.9 14.0 8.3 50 5.5 ESE 24 30 13 16 1020.3 1020.3 0.0
27/05:30pm 18.9 14.3 8.0 49 5.6 ESE 22 28 12 15 1019.7 1019.6 0.0
27/05:00pm 19.6 14.1 7.4 45 6.2 ESE 26 32 14 17 1019.2 1019.1 0.0
27/04:30pm 20.0 14.7 8.4 47 6.0 ESE 26 30 14 16 1018.9 1018.8 0.0
27/04:00pm 20.7 16.3 7.3 42 6.8 E 20 24 11 13 1018.6 1018.5 0.0
27/03:30pm 22.1 16.6 1.7 26 9.5 ENE 20 26 11 14 1018.2 1018.1 0.0
27/03:00pm 21.5 15.6 -2.4 20 10.2 ENE 19 22 10 12 1018.1 1018.0 0.0
27/02:30pm 21.7 16.0 0.3 24 9.6 ENE 20 26 11 14 1018.2 1018.1 0.0
27/02:00pm 21.1 15.3 -0.2 24 9.4 ENE 20 24 11 13 1018.6 1018.5 0.0
27/01:30pm 21.3 15.4 -0.6 23 9.7 ENE 20 26 11 14 1019.0 1018.9 0.0
27/01:00pm 21.0 14.8 -4.9 17 10.4 ENE 19 24 10 13 1019.5 1019.4 0.0
27/12:30pm 20.9 15.1 -1.6 22 9.7 ENE 19 22 10 12 1019.9 1019.8 0.0
27/12:00pm 21.1 15.5 -0.2 24 9.4 E 19 22 10 12 1020.2 1020.2 0.0
27/11:30am 21.6 16.5 -2.3 20 10.2 ESE 15 19 8 10 1020.7 1020.7 0.0
27/11:00am 22.1 16.6 -1.9 20 10.4 SSE 17 26 9 14 1021.1 1021.1 0.0
27/10:30am 22.0 16.4 -2.7 19 10.5 SSE 17 24 9 13 1021.6 1021.6 0.0
27/10:00am 20.6 15.0 -2.5 21 9.7 S 17 20 9 11 1021.9 1021.9 0.0
27/09:30am 20.5 15.0 -1.9 22 9.6 S 17 24 9 13 1022.1 1022.1 0.0
27/09:00am 19.9 14.5 -1.2 24 9.0 SSW 17 26 9 14 1022.0 1022.0 0.0
27/08:30am 18.9 13.5 -1.5 25 8.7 SW 17 24 9 13 1022.1 1022.1 0.0
27/08:00am 17.7 12.7 -1.5 27 8.0 SW 15 20 8 11 1021.9 1021.9 0.0
27/07:30am 16.1 11.6 -0.6 32 7.0 SW 13 19 7 10 1021.7 1021.7 0.0
27/07:00am 14.5 10.1 0.4 38 6.0 WSW 13 17 7 9 1021.2 1021.2 0.0
27/06:30am 12.1 8.6 1.1 47 4.6 SW 9 13 5 7 1020.8 1020.8 0.0
27/06:00am 10.5 6.9 0.3 49 4.1 W 9 13 5 7 1020.3 1020.3 0.0
27/05:30am 10.5 7.1 -0.3 47 4.3 WNW 7 9 4 5 1020.0 1019.9 0.0
27/05:00am 10.5 6.7 -0.6 46 4.4 WSW 9 13 5 7 1019.5 1019.4 0.0
27/04:30am 10.8 7.1 0.0 47 4.4 WSW 9 9 5 5 1019.2 1019.1 0.0
27/04:00am 11.5 8.8 0.6 47 4.5 WSW 4 9 2 5 1019.0 1018.9 0.0
27/03:30am 12.7 8.4 -1.6 37 5.7 WSW 11 13 6 7 1018.6 1018.5 0.0
27/03:00am 12.5 7.9 -1.4 38 5.5 WSW 13 17 7 9 1018.5 1018.4 0.0
27/02:30am 12.4 7.7 -1.5 38 5.5 WSW 13 17 7 9 1018.6 1018.5 0.0
27/02:00am 12.8 8.1 -1.5 37 5.7 WSW 13 17 7 9 1018.7 1018.6 0.0
27/01:30am 13.4 9.0 -2.5 33 6.3 WSW 11 15 6 8 1019.0 1018.9 0.0
27/01:00am 13.8 9.0 -2.6 32 6.4 WSW 13 17 7 9 1019.2 1019.1 0.0
27/12:30am 14.4 10.0 -2.5 31 6.7 WSW 11 15 6 8 1019.3 1019.2 0.0
27/12:00am 14.7 9.9 -2.7 30 6.9 WSW 13 17 7 9 1019.5 1019.4 0.0
 
Date/Time
EST
Temp
°C
App
Temp
°C
Dew
Point
°C
Rel
Hum
%
Delta-T
°C
Wind Press
QNH
hPa
Press
MSL
hPa
Rain since
9am
mm
Dir  Spd
km/h
Gust
km/h
Spd
kts
Gust
kts
26/11:30pm 15.9 10.7 -3.0 27 7.5 WSW 15 20 8 11 1019.2 1019.1 0.0
26/11:00pm 16.2 11.3 -3.3 26 7.7 WSW 13 20 7 11 1019.4 1019.3 0.0
26/10:30pm 16.6 11.3 -3.5 25 8.0 W 15 20 8 11 1019.4 1019.3 0.0
26/10:00pm 16.8 11.6 -2.8 26 7.9 W 15 20 8 11 1019.6 1019.5 0.0
26/09:30pm 16.8 12.0 -2.8 26 7.9 W 13 17 7 9 1019.5 1019.4 0.0
26/09:00pm 17.5 13.1 -2.7 25 8.2 W 11 15 6 8 1019.3 1019.2 0.0
26/08:30pm 17.8 13.0 -2.5 25 8.3 W 13 19 7 10 1019.0 1018.9 0.0
26/08:00pm 18.4 13.5 -3.1 23 8.8 W 13 17 7 9 1018.5 1018.4 0.0
26/07:30pm 18.7 13.9 -2.8 23 8.9 W 13 19 7 10 1017.9 1017.8 0.0
26/07:00pm 19.2 14.3 -3.6 21 9.3 SW 13 22 7 12 1017.3 1017.2 0.0
26/06:30pm 20.1 14.7 -4.2 19 9.9 WSW 15 22 8 12 1016.6 1016.5 0.0
26/06:00pm 20.6 14.2 -5.3 17 10.3 WSW 20 32 11 17 1015.9 1015.8 0.0
26/05:30pm 21.5 14.8 -4.5 17 10.6 WSW 22 37 12 20 1015.0 1014.9 0.0
26/05:00pm 22.4 14.4 -5.5 15 11.3 WSW 28 37 15 20 1014.3 1014.2 0.0
26/04:30pm 23.2 16.1 -4.8 15 11.6 WSW 24 37 13 20 1013.8 1013.7 0.0
26/04:00pm 23.7 17.0 -4.4 15 11.8 WSW 22 35 12 19 1013.4 1013.3 0.0
26/03:30pm 23.6 16.5 -4.5 15 11.7 WSW 24 37 13 20 1013.1 1013.0 0.0

Other formats

Comma delimited format used in spreadsheet applications
http://www.bom.gov.au/fwo/IDQ60801/IDQ60801.95591.axf

JavaScript Object Notation format (JSON) in row-major order
http://www.bom.gov.au/fwo/IDQ60801/IDQ60801.95591.json

Data quality

Most of these data are generated automatically and are frequently updated. Quality checks on data are not normally performed. It is possible for incorrect values to appear. Refer to information at About Latest Weather Observations and please check the disclaimer before using these data.